sensor_id;sensor_type;location;lat;lon;timestamp;pressure;altitude;pressure_sealevel;temperature;humidity
8894;BME280;4483;48.622;9.230;2024-02-16T00:00:57;97742.78;;;8.95;100.00
8894;BME280;4483;48.622;9.230;2024-02-16T00:03:25;97744.50;;;8.94;100.00
8894;BME280;4483;48.622;9.230;2024-02-16T00:05:52;97734.22;;;8.94;100.00
8894;BME280;4483;48.622;9.230;2024-02-16T00:08:19;97742.81;;;8.93;100.00
8894;BME280;4483;48.622;9.230;2024-02-16T00:10:46;97742.84;;;8.92;100.00
8894;BME280;4483;48.622;9.230;2024-02-16T00:13:13;97745.44;;;8.92;100.00
8894;BME280;4483;48.622;9.230;2024-02-16T00:15:41;97745.47;;;8.90;100.00
8894;BME280;4483;48.622;9.230;2024-02-16T00:18:07;97743.16;;;8.84;100.00
8894;BME280;4483;48.622;9.230;2024-02-16T00:20:34;97740.59;;;8.83;100.00
8894;BME280;4483;48.622;9.230;2024-02-16T00:23:01;97741.53;;;8.82;100.00
8894;BME280;4483;48.622;9.230;2024-02-16T00:25:27;97747.50;;;8.82;100.00
8894;BME280;4483;48.622;9.230;2024-02-16T00:27:54;97744.16;;;8.80;100.00
8894;BME280;4483;48.622;9.230;2024-02-16T00:30:21;97740.72;;;8.80;100.00
8894;BME280;4483;48.622;9.230;2024-02-16T00:32:49;97739.88;;;8.79;100.00
8894;BME280;4483;48.622;9.230;2024-02-16T00:35:16;97734.75;;;8.79;100.00
8894;BME280;4483;48.622;9.230;2024-02-16T00:37:44;97740.66;;;8.81;100.00
8894;BME280;4483;48.622;9.230;2024-02-16T00:40:12;97733.88;;;8.80;100.00
8894;BME280;4483;48.622;9.230;2024-02-16T00:42:39;97724.59;;;8.76;100.00
8894;BME280;4483;48.622;9.230;2024-02-16T00:45:06;97740.66;;;8.81;100.00
8894;BME280;4483;48.622;9.230;2024-02-16T00:47:34;97732.97;;;8.81;100.00
8894;BME280;4483;48.622;9.230;2024-02-16T00:50:03;97732.97;;;8.81;100.00
8894;BME280;4483;48.622;9.230;2024-02-16T00:52:33;97724.38;;;8.82;100.00
8894;BME280;4483;48.622;9.230;2024-02-16T00:55:00;97726.97;;;8.81;100.00
8894;BME280;4483;48.622;9.230;2024-02-16T00:57:27;97733.09;;;8.78;100.00
8894;BME280;4483;48.622;9.230;2024-02-16T00:59:53;97729.59;;;8.79;100.00
8894;BME280;4483;48.622;9.230;2024-02-16T01:02:20;97727.94;;;8.78;100.00
8894;BME280;4483;48.622;9.230;2024-02-16T01:04:47;97725.38;;;8.78;100.00
8894;BME280;4483;48.622;9.230;2024-02-16T01:07:16;97726.25;;;8.77;100.00
8894;BME280;4483;48.622;9.230;2024-02-16T01:09:43;97726.25;;;8.77;100.00
8894;BME280;4483;48.622;9.230;2024-02-16T01:12:10;97727.22;;;8.75;100.00
8894;BME280;4483;48.622;9.230;2024-02-16T01:14:37;97732.34;;;8.75;100.00
8894;BME280;4483;48.622;9.230;2024-02-16T01:17:03;97728.94;;;8.74;100.00
8894;BME280;4483;48.622;9.230;2024-02-16T01:19:30;97723.81;;;8.74;100.00
8894;BME280;4483;48.622;9.230;2024-02-16T01:21:58;97730.66;;;8.74;100.00
8894;BME280;4483;48.622;9.230;2024-02-16T01:24:27;97722.09;;;8.75;100.00
8894;BME280;4483;48.622;9.230;2024-02-16T01:26:53;97722.03;;;8.76;100.00
8894;BME280;4483;48.622;9.230;2024-02-16T01:29:20;97738.22;;;8.78;100.00
8894;BME280;4483;48.622;9.230;2024-02-16T01:31:47;97733.09;;;8.78;100.00
8894;BME280;4483;48.622;9.230;2024-02-16T01:34:13;97727.94;;;8.78;100.00
8894;BME280;4483;48.622;9.230;2024-02-16T01:36:40;97725.38;;;8.78;100.00
8894;BME280;4483;48.622;9.230;2024-02-16T01:39:06;97717.66;;;8.78;100.00
8894;BME280;4483;48.622;9.230;2024-02-16T01:41:38;97710.03;;;8.77;100.00
8894;BME280;4483;48.622;9.230;2024-02-16T01:44:04;97718.72;;;8.73;100.00
8894;BME280;4483;48.622;9.230;2024-02-16T01:46:31;97722.88;;;8.77;100.00
8894;BME280;4483;48.622;9.230;2024-02-16T01:48:58;97730.50;;;8.78;100.00
8894;BME280;4483;48.622;9.230;2024-02-16T01:51:25;97727.16;;;8.76;100.00
8894;BME280;4483;48.622;9.230;2024-02-16T01:53:52;97730.59;;;8.75;100.00
8894;BME280;4483;48.622;9.230;2024-02-16T01:56:20;97721.28;;;8.73;100.00
8894;BME280;4483;48.622;9.230;2024-02-16T01:58:48;97719.66;;;8.70;100.00
8894;BME280;4483;48.622;9.230;2024-02-16T02:01:15;97725.69;;;8.69;100.00
8894;BME280;4483;48.622;9.230;2024-02-16T02:03:41;97720.63;;;8.68;100.00
8894;BME280;4483;48.622;9.230;2024-02-16T02:06:08;97712.88;;;8.69;100.00
8894;BME280;4483;48.622;9.230;2024-02-16T02:08:35;97718.88;;;8.68;100.00
8894;BME280;4483;48.622;9.230;2024-02-16T02:11:01;97713.78;;;8.67;100.00
8894;BME280;4483;48.622;9.230;2024-02-16T02:13:28;97712.06;;;8.67;100.00
8894;BME280;4483;48.622;9.230;2024-02-16T02:15:58;97714.53;;;8.70;100.00
8894;BME280;4483;48.622;9.230;2024-02-16T02:18:24;97713.66;;;8.71;100.00
8894;BME280;4483;48.622;9.230;2024-02-16T02:20:51;97702.47;;;8.72;100.00
8894;BME280;4483;48.622;9.230;2024-02-16T02:23:20;97706.81;;;8.70;100.00
8894;BME280;4483;48.622;9.230;2024-02-16T02:25:47;97697.41;;;8.71;100.00
8894;BME280;4483;48.622;9.230;2024-02-16T02:28:14;97707.66;;;8.71;100.00
8894;BME280;4483;48.622;9.230;2024-02-16T02:30:41;97695.66;;;8.71;100.00
8894;BME280;4483;48.622;9.230;2024-02-16T02:33:07;97695.66;;;8.71;100.00
8894;BME280;4483;48.622;9.230;2024-02-16T02:35:34;97705.03;;;8.72;100.00
8894;BME280;4483;48.622;9.230;2024-02-16T02:38:01;97694.69;;;8.74;100.00
8894;BME280;4483;48.622;9.230;2024-02-16T02:40:29;97689.50;;;8.75;100.00
8894;BME280;4483;48.622;9.230;2024-02-16T02:42:55;97693.78;;;8.76;100.00
8894;BME280;4483;48.622;9.230;2024-02-16T02:45:22;97692.03;;;8.77;100.00
8894;BME280;4483;48.622;9.230;2024-02-16T02:47:49;97690.25;;;8.79;100.00
8894;BME280;4483;48.622;9.230;2024-02-16T02:50:15;97687.69;;;8.79;100.00
8894;BME280;4483;48.622;9.230;2024-02-16T02:52:42;97692.84;;;8.79;100.00
8894;BME280;4483;48.622;9.230;2024-02-16T02:55:10;97692.88;;;8.77;100.00
8894;BME280;4483;48.622;9.230;2024-02-16T02:57:38;97686.91;;;8.77;100.00
8894;BME280;4483;48.622;9.230;2024-02-16T03:00:06;97687.72;;;8.77;100.00
8894;BME280;4483;48.622;9.230;2024-02-16T03:02:36;97688.56;;;8.78;100.00
8894;BME280;4483;48.622;9.230;2024-02-16T03:05:03;97687.72;;;8.77;100.00
8894;BME280;4483;48.622;9.230;2024-02-16T03:07:30;97680.94;;;8.76;100.00
8894;BME280;4483;48.622;9.230;2024-02-16T03:09:57;97674.94;;;8.76;100.00
8894;BME280;4483;48.622;9.230;2024-02-16T03:12:24;97675.78;;;8.76;100.00
8894;BME280;4483;48.622;9.230;2024-02-16T03:14:52;97672.44;;;8.74;100.00
8894;BME280;4483;48.622;9.230;2024-02-16T03:17:18;97678.47;;;8.73;100.00
8894;BME280;4483;48.622;9.230;2024-02-16T03:19:45;97666.50;;;8.72;100.00
8894;BME280;4483;48.622;9.230;2024-02-16T03:22:12;97675.13;;;8.71;100.00
8894;BME280;4483;48.622;9.230;2024-02-16T03:24:39;97681.13;;;8.70;100.00
8894;BME280;4483;48.622;9.230;2024-02-16T03:27:05;97688.84;;;8.70;100.00
8894;BME280;4483;48.622;9.230;2024-02-16T03:29:32;97672.59;;;8.70;100.00
8894;BME280;4483;48.622;9.230;2024-02-16T03:32:00;97682.03;;;8.69;100.00
8894;BME280;4483;48.622;9.230;2024-02-16T03:34:26;97682.03;;;8.69;100.00
8894;BME280;4483;48.622;9.230;2024-02-16T03:36:53;97686.34;;;8.69;100.00
8894;BME280;4483;48.622;9.230;2024-02-16T03:39:20;97685.47;;;8.68;100.00
8894;BME280;4483;48.622;9.230;2024-02-16T03:41:47;97689.75;;;8.69;100.00
8894;BME280;4483;48.622;9.230;2024-02-16T03:44:15;97689.75;;;8.69;100.00
8894;BME280;4483;48.622;9.230;2024-02-16T03:46:41;97686.38;;;8.67;100.00
8894;BME280;4483;48.622;9.230;2024-02-16T03:49:10;97693.25;;;8.67;100.00
8894;BME280;4483;48.622;9.230;2024-02-16T03:51:36;97689.06;;;8.64;100.00
8894;BME280;4483;48.622;9.230;2024-02-16T03:54:03;97705.25;;;8.66;100.00
8894;BME280;4483;48.622;9.230;2024-02-16T03:56:30;97698.38;;;8.67;100.00
8894;BME280;4483;48.622;9.230;2024-02-16T03:58:57;97704.50;;;8.64;100.00
8894;BME280;4483;48.622;9.230;2024-02-16T04:01:24;97701.13;;;8.62;100.00
8894;BME280;4483;48.622;9.230;2024-02-16T04:03:50;97710.63;;;8.60;100.00
8894;BME280;4483;48.622;9.230;2024-02-16T04:06:19;97704.56;;;8.61;100.00
8894;BME280;4483;48.622;9.230;2024-02-16T04:08:46;97702.00;;;8.61;100.00
8894;BME280;4483;48.622;9.230;2024-02-16T04:11:14;97694.31;;;8.61;100.00
8894;BME280;4483;48.622;9.230;2024-02-16T04:13:41;97701.94;;;8.63;100.00
8894;BME280;4483;48.622;9.230;2024-02-16T04:16:07;97701.94;;;8.63;100.00
8894;BME280;4483;48.622;9.230;2024-02-16T04:18:34;97702.78;;;8.63;100.00
8894;BME280;4483;48.622;9.230;2024-02-16T04:21:01;97692.53;;;8.63;100.00
8894;BME280;4483;48.622;9.230;2024-02-16T04:23:29;97702.78;;;8.63;100.00
8894;BME280;4483;48.622;9.230;2024-02-16T04:25:56;97706.22;;;8.64;100.00
8894;BME280;4483;48.622;9.230;2024-02-16T04:28:22;97696.81;;;8.63;100.00
8894;BME280;4483;48.622;9.230;2024-02-16T04:30:49;97708.78;;;8.64;100.00
8894;BME280;4483;48.622;9.230;2024-02-16T04:33:15;97699.44;;;8.61;100.00
8894;BME280;4483;48.622;9.230;2024-02-16T04:35:42;97708.88;;;8.61;100.00
8894;BME280;4483;48.622;9.230;2024-02-16T04:38:12;97714.97;;;8.58;100.00
8894;BME280;4483;48.622;9.230;2024-02-16T04:40:40;97714.97;;;8.58;100.00
8894;BME280;4483;48.622;9.230;2024-02-16T04:43:06;97715.91;;;8.56;100.00
8894;BME280;4483;48.622;9.230;2024-02-16T04:45:33;97722.00;;;8.53;100.00
8894;BME280;4483;48.622;9.230;2024-02-16T04:48:02;97720.25;;;8.54;100.00
8894;BME280;4483;48.622;9.230;2024-02-16T04:50:30;97721.16;;;8.53;100.00
8894;BME280;4483;48.622;9.230;2024-02-16T04:52:57;97724.56;;;8.53;100.00
8894;BME280;4483;48.622;9.230;2024-02-16T04:55:23;97721.09;;;8.54;100.00
8894;BME280;4483;48.622;9.230;2024-02-16T04:57:51;97714.22;;;8.55;100.00
8894;BME280;4483;48.622;9.230;2024-02-16T05:00:18;97717.63;;;8.55;100.00
8894;BME280;4483;48.622;9.230;2024-02-16T05:02:46;97709.03;;;8.56;100.00
8894;BME280;4483;48.622;9.230;2024-02-16T05:05:12;97719.31;;;8.56;100.00
8894;BME280;4483;48.622;9.230;2024-02-16T05:07:41;97718.53;;;8.54;100.00
8894;BME280;4483;48.622;9.230;2024-02-16T05:10:09;97722.00;;;8.53;100.00
8894;BME280;4483;48.622;9.230;2024-02-16T05:12:36;97722.88;;;8.52;100.00
8894;BME280;4483;48.622;9.230;2024-02-16T05:15:05;97724.59;;;8.52;100.00
8894;BME280;4483;48.622;9.230;2024-02-16T05:17:32;97727.16;;;8.52;100.00
8894;BME280;4483;48.622;9.230;2024-02-16T05:19:58;97722.88;;;8.52;100.00
8894;BME280;4483;48.622;9.230;2024-02-16T05:22:25;97724.56;;;8.53;100.00
8894;BME280;4483;48.622;9.230;2024-02-16T05:24:52;97726.28;;;8.53;100.00
8894;BME280;4483;48.622;9.230;2024-02-16T05:27:18;97713.69;;;8.45;100.00
8894;BME280;4483;48.622;9.230;2024-02-16T05:29:45;97722.06;;;8.50;100.00
8894;BME280;4483;48.622;9.230;2024-02-16T05:32:13;97728.06;;;8.51;100.00
8894;BME280;4483;48.622;9.230;2024-02-16T05:34:40;97733.25;;;8.49;100.00
8894;BME280;4483;48.622;9.230;2024-02-16T05:37:07;97732.28;;;8.52;100.00
8894;BME280;4483;48.622;9.230;2024-02-16T05:39:36;97730.63;;;8.51;100.00
8894;BME280;4483;48.622;9.230;2024-02-16T05:42:19;97731.41;;;8.53;100.00
8894;BME280;4483;48.622;9.230;2024-02-16T05:44:46;97741.69;;;8.53;100.00
8894;BME280;4483;48.622;9.230;2024-02-16T05:47:15;97738.28;;;8.52;100.00
8894;BME280;4483;48.622;9.230;2024-02-16T05:49:41;97738.34;;;8.51;100.00
8894;BME280;4483;48.622;9.230;2024-02-16T05:52:08;97731.50;;;8.50;100.00
8894;BME280;4483;48.622;9.230;2024-02-16T05:54:44;97742.63;;;8.50;100.00
8894;BME280;4483;48.622;9.230;2024-02-16T05:57:10;97739.25;;;8.48;100.00
8894;BME280;4483;48.622;9.230;2024-02-16T05:59:38;97744.41;;;8.48;100.00
8894;BME280;4483;48.622;9.230;2024-02-16T06:02:04;97746.16;;;8.48;100.00
8894;BME280;4483;48.622;9.230;2024-02-16T06:04:33;97751.28;;;8.48;100.00
8894;BME280;4483;48.622;9.230;2024-02-16T06:07:00;97747.81;;;8.49;100.00
8894;BME280;4483;48.622;9.230;2024-02-16T06:09:27;97752.03;;;8.50;100.00
8894;BME280;4483;48.622;9.230;2024-02-16T06:12:00;97753.00;;;8.47;100.00
8894;BME280;4483;48.622;9.230;2024-02-16T06:14:28;97758.19;;;8.46;100.00
8894;BME280;4483;48.622;9.230;2024-02-16T06:16:55;97755.72;;;8.43;100.00
8894;BME280;4483;48.622;9.230;2024-02-16T06:19:22;97761.69;;;8.43;100.00
8894;BME280;4483;48.622;9.230;2024-02-16T06:21:50;97759.19;;;8.42;100.00
8894;BME280;4483;48.622;9.230;2024-02-16T06:24:16;97769.44;;;8.42;100.00
8894;BME280;4483;48.622;9.230;2024-02-16T06:26:44;97770.31;;;8.42;100.00
8894;BME280;4483;48.622;9.230;2024-02-16T06:29:10;97765.97;;;8.43;100.00
8894;BME280;4483;48.622;9.230;2024-02-16T06:31:37;97765.16;;;8.42;100.00
8894;BME280;4483;48.622;9.230;2024-02-16T06:34:04;97766.81;;;8.43;100.00
8894;BME280;4483;48.622;9.230;2024-02-16T06:36:30;97771.97;;;8.43;100.00
8894;BME280;4483;48.622;9.230;2024-02-16T06:38:58;97781.31;;;8.46;100.00
8894;BME280;4483;48.622;9.230;2024-02-16T06:41:25;97776.16;;;8.46;100.00
8894;BME280;4483;48.622;9.230;2024-02-16T06:43:52;97783.75;;;8.49;100.00
8894;BME280;4483;48.622;9.230;2024-02-16T06:46:18;97782.72;;;8.54;100.00
8894;BME280;4483;48.622;9.230;2024-02-16T06:48:45;97781.00;;;8.55;100.00
8894;BME280;4483;48.622;9.230;2024-02-16T06:51:12;97786.13;;;8.55;100.00
8894;BME280;4483;48.622;9.230;2024-02-16T06:53:38;97789.56;;;8.54;100.00
8894;BME280;4483;48.622;9.230;2024-02-16T06:56:08;97798.13;;;8.54;100.00
8894;BME280;4483;48.622;9.230;2024-02-16T06:58:34;97801.59;;;8.53;100.00
8894;BME280;4483;48.622;9.230;2024-02-16T07:01:01;97807.53;;;8.54;100.00
8894;BME280;4483;48.622;9.230;2024-02-16T07:03:28;97804.91;;;8.57;100.00
8894;BME280;4483;48.622;9.230;2024-02-16T07:05:55;97809.91;;;8.60;100.00
8894;BME280;4483;48.622;9.230;2024-02-16T07:08:22;97802.06;;;8.64;100.00
8894;BME280;4483;48.622;9.230;2024-02-16T07:10:49;97801.84;;;8.70;100.00
8894;BME280;4483;48.622;9.230;2024-02-16T07:13:18;97803.56;;;8.70;100.00
8894;BME280;4483;48.622;9.230;2024-02-16T07:15:45;97805.16;;;8.74;100.00
8894;BME280;4483;48.622;9.230;2024-02-16T07:18:12;97817.91;;;8.77;100.00
8894;BME280;4483;48.622;9.230;2024-02-16T07:20:40;97816.81;;;8.84;100.00
8894;BME280;4483;48.622;9.230;2024-02-16T07:23:06;97819.94;;;8.92;100.00
8894;BME280;4483;48.622;9.230;2024-02-16T07:25:34;97811.09;;;9.00;100.00
8894;BME280;4483;48.622;9.230;2024-02-16T07:28:01;97811.69;;;9.32;100.00
8894;BME280;4483;48.622;9.230;2024-02-16T07:30:29;97814.47;;;9.72;100.00
8894;BME280;4483;48.622;9.230;2024-02-16T07:32:56;97817.41;;;9.84;100.00
8894;BME280;4483;48.622;9.230;2024-02-16T07:35:22;97821.66;;;10.30;100.00
8894;BME280;4483;48.622;9.230;2024-02-16T07:37:49;97811.47;;;10.89;100.00
8894;BME280;4483;48.622;9.230;2024-02-16T07:40:17;97810.59;;;11.29;100.00
8894;BME280;4483;48.622;9.230;2024-02-16T07:42:45;97816.59;;;11.29;100.00
8894;BME280;4483;48.622;9.230;2024-02-16T07:45:12;97819.50;;;11.22;100.00
8894;BME280;4483;48.622;9.230;2024-02-16T07:47:40;97818.97;;;11.13;100.00
8894;BME280;4483;48.622;9.230;2024-02-16T07:50:07;97824.72;;;11.20;100.00
8894;BME280;4483;48.622;9.230;2024-02-16T07:52:34;97832.47;;;11.59;100.00
8894;BME280;4483;48.622;9.230;2024-02-16T07:55:01;97824.31;;;12.05;100.00
8894;BME280;4483;48.622;9.230;2024-02-16T07:57:28;97824.50;;;12.55;100.00
8894;BME280;4483;48.622;9.230;2024-02-16T07:59:56;97824.44;;;13.07;100.00
8894;BME280;4483;48.622;9.230;2024-02-16T08:02:22;97826.75;;;13.46;100.00
8894;BME280;4483;48.622;9.230;2024-02-16T08:04:50;97818.69;;;13.35;100.00
8894;BME280;4483;48.622;9.230;2024-02-16T08:07:17;97815.69;;;13.27;100.00
8894;BME280;4483;48.622;9.230;2024-02-16T08:09:44;97824.31;;;13.43;100.00
8894;BME280;4483;48.622;9.230;2024-02-16T08:12:11;97820.34;;;13.69;100.00
8894;BME280;4483;48.622;9.230;2024-02-16T08:14:38;97826.13;;;14.05;100.00
8894;BME280;4483;48.622;9.230;2024-02-16T08:17:05;97825.50;;;14.33;100.00
8894;BME280;4483;48.622;9.230;2024-02-16T08:19:33;97825.13;;;14.54;100.00
8894;BME280;4483;48.622;9.230;2024-02-16T08:22:01;97830.44;;;14.67;100.00
8894;BME280;4483;48.622;9.230;2024-02-16T08:24:29;97823.38;;;14.84;99.50
8894;BME280;4483;48.622;9.230;2024-02-16T08:26:56;97821.22;;;15.21;99.41
8894;BME280;4483;48.622;9.230;2024-02-16T08:29:22;97827.78;;;15.56;97.48
8894;BME280;4483;48.622;9.230;2024-02-16T08:31:50;97828.50;;;15.72;95.51
8894;BME280;4483;48.622;9.230;2024-02-16T08:34:17;97822.50;;;16.12;93.27
8894;BME280;4483;48.622;9.230;2024-02-16T08:36:44;97818.88;;;16.55;92.55
8894;BME280;4483;48.622;9.230;2024-02-16T08:39:13;97816.59;;;17.02;90.48
8894;BME280;4483;48.622;9.230;2024-02-16T08:41:39;97832.66;;;17.47;88.64
8894;BME280;4483;48.622;9.230;2024-02-16T08:44:06;97829.13;;;17.60;85.97
8894;BME280;4483;48.622;9.230;2024-02-16T08:46:34;97823.13;;;17.96;83.30
8894;BME280;4483;48.622;9.230;2024-02-16T08:49:01;97829.19;;;18.33;82.36
8894;BME280;4483;48.622;9.230;2024-02-16T08:51:28;97829.28;;;18.67;80.83
8894;BME280;4483;48.622;9.230;2024-02-16T08:53:55;97825.97;;;19.11;78.49
8894;BME280;4483;48.622;9.230;2024-02-16T08:56:23;97822.63;;;19.55;76.45
8894;BME280;4483;48.622;9.230;2024-02-16T08:58:49;97822.50;;;19.67;73.32
8894;BME280;4483;48.622;9.230;2024-02-16T09:01:16;97822.38;;;19.47;72.12
8894;BME280;4483;48.622;9.230;2024-02-16T09:03:43;97832.31;;;19.31;70.84
8894;BME280;4483;48.622;9.230;2024-02-16T09:06:10;97831.63;;;19.40;68.80
8894;BME280;4483;48.622;9.230;2024-02-16T09:08:38;97837.00;;;19.82;69.49
8894;BME280;4483;48.622;9.230;2024-02-16T09:11:05;97830.94;;;20.04;67.39
8894;BME280;4483;48.622;9.230;2024-02-16T09:13:33;97829.03;;;20.06;66.00
8894;BME280;4483;48.622;9.230;2024-02-16T09:16:01;97834.84;;;20.10;63.12
8894;BME280;4483;48.622;9.230;2024-02-16T09:18:28;97830.69;;;20.07;62.43
8894;BME280;4483;48.622;9.230;2024-02-16T09:20:55;97814.66;;;20.23;62.08
8894;BME280;4483;48.622;9.230;2024-02-16T09:23:21;97830.66;;;20.40;59.76
8894;BME280;4483;48.622;9.230;2024-02-16T09:25:48;97830.84;;;20.59;59.59
8894;BME280;4483;48.622;9.230;2024-02-16T09:28:16;97827.13;;;20.93;57.40
8894;BME280;4483;48.622;9.230;2024-02-16T09:30:45;97831.66;;;21.23;56.85
8894;BME280;4483;48.622;9.230;2024-02-16T09:33:12;97826.97;;;21.27;54.99
8894;BME280;4483;48.622;9.230;2024-02-16T09:35:39;97829.81;;;21.35;54.22
8894;BME280;4483;48.622;9.230;2024-02-16T09:38:06;97827.13;;;21.46;52.94
8894;BME280;4483;48.622;9.230;2024-02-16T09:40:35;97831.50;;;21.45;52.11
8894;BME280;4483;48.622;9.230;2024-02-16T09:43:02;97833.94;;;21.58;51.35
8894;BME280;4483;48.622;9.230;2024-02-16T09:45:30;97828.31;;;21.42;50.99
8894;BME280;4483;48.622;9.230;2024-02-16T09:47:58;97835.03;;;21.14;51.61
8894;BME280;4483;48.622;9.230;2024-02-16T09:50:25;97837.22;;;21.30;51.48
8894;BME280;4483;48.622;9.230;2024-02-16T09:52:52;97834.41;;;21.42;51.39
8894;BME280;4483;48.622;9.230;2024-02-16T09:55:20;97837.25;;;21.60;51.49
8894;BME280;4483;48.622;9.230;2024-02-16T09:57:57;97844.06;;;21.72;51.40
8894;BME280;4483;48.622;9.230;2024-02-16T10:00:24;97851.50;;;21.87;50.76
8894;BME280;4483;48.622;9.230;2024-02-16T10:02:50;97849.63;;;21.99;50.82
8894;BME280;4483;48.622;9.230;2024-02-16T10:05:20;97859.56;;;22.05;50.65
8894;BME280;4483;48.622;9.230;2024-02-16T10:07:47;97855.19;;;22.15;50.31
8894;BME280;4483;48.622;9.230;2024-02-16T10:10:20;97863.09;;;22.34;49.83
8894;BME280;4483;48.622;9.230;2024-02-16T10:12:48;97868.19;;;22.17;49.52
8894;BME280;4483;48.622;9.230;2024-02-16T10:15:20;97862.28;;;21.94;50.06
8894;BME280;4483;48.622;9.230;2024-02-16T10:17:57;97864.66;;;21.76;50.42
8894;BME280;4483;48.622;9.230;2024-02-16T10:20:25;97875.88;;;21.37;50.38
8894;BME280;4483;48.622;9.230;2024-02-16T10:23:02;97865.47;;;20.94;51.34
8894;BME280;4483;48.622;9.230;2024-02-16T10:25:29;97877.72;;;20.51;52.25
8894;BME280;4483;48.622;9.230;2024-02-16T10:27:56;97872.09;;;20.24;53.02
8894;BME280;4483;48.622;9.230;2024-02-16T10:30:29;97875.06;;;19.86;54.22
8894;BME280;4483;48.622;9.230;2024-02-16T10:32:55;97873.72;;;19.70;54.59
8894;BME280;4483;48.622;9.230;2024-02-16T10:35:26;97879.16;;;19.56;55.10
8894;BME280;4483;48.622;9.230;2024-02-16T10:37:54;97879.25;;;19.43;55.50
8894;BME280;4483;48.622;9.230;2024-02-16T10:40:23;97875.88;;;19.30;56.27
8894;BME280;4483;48.622;9.230;2024-02-16T10:42:50;97890.94;;;19.27;56.79
8894;BME280;4483;48.622;9.230;2024-02-16T10:45:17;97894.25;;;19.18;57.04
8894;BME280;4483;48.622;9.230;2024-02-16T10:47:44;97903.88;;;19.17;56.87
8894;BME280;4483;48.622;9.230;2024-02-16T10:50:12;97894.00;;;19.10;56.12
8894;BME280;4483;48.622;9.230;2024-02-16T10:52:43;97900.81;;;18.99;56.56
8894;BME280;4483;48.622;9.230;2024-02-16T10:55:13;97902.34;;;18.91;56.15
8894;BME280;4483;48.622;9.230;2024-02-16T10:57:41;97895.56;;;18.88;56.10
8894;BME280;4483;48.622;9.230;2024-02-16T11:00:09;97897.44;;;18.86;56.50
8894;BME280;4483;48.622;9.230;2024-02-16T11:02:52;97891.16;;;18.89;56.40
8894;BME280;4483;48.622;9.230;2024-02-16T11:05:31;97901.78;;;18.98;56.22
8894;BME280;4483;48.622;9.230;2024-02-16T11:08:01;97897.09;;;19.15;56.56
8894;BME280;4483;48.622;9.230;2024-02-16T11:10:28;97889.72;;;19.43;56.27
8894;BME280;4483;48.622;9.230;2024-02-16T11:13:00;97896.31;;;19.82;55.95
8894;BME280;4483;48.622;9.230;2024-02-16T11:15:28;97889.81;;;20.21;55.23
8894;BME280;4483;48.622;9.230;2024-02-16T11:17:56;97899.19;;;20.45;54.70
8894;BME280;4483;48.622;9.230;2024-02-16T11:20:24;97888.19;;;20.62;52.80
8894;BME280;4483;48.622;9.230;2024-02-16T11:22:51;97889.25;;;20.71;52.41
8894;BME280;4483;48.622;9.230;2024-02-16T11:25:30;97886.06;;;20.67;52.63
8894;BME280;4483;48.622;9.230;2024-02-16T11:27:57;97883.78;;;20.63;52.40
8894;BME280;4483;48.622;9.230;2024-02-16T11:30:24;97886.72;;;20.69;52.63
8894;BME280;4483;48.622;9.230;2024-02-16T11:32:51;97889.00;;;20.74;52.61
8894;BME280;4483;48.622;9.230;2024-02-16T11:35:18;97878.34;;;20.86;52.81
8894;BME280;4483;48.622;9.230;2024-02-16T11:37:44;97883.28;;;21.12;52.45
8894;BME280;4483;48.622;9.230;2024-02-16T11:40:12;97882.47;;;21.32;52.22
8894;BME280;4483;48.622;9.230;2024-02-16T11:42:40;97881.06;;;21.48;52.09
8894;BME280;4483;48.622;9.230;2024-02-16T11:45:10;97881.69;;;21.61;52.00
8894;BME280;4483;48.622;9.230;2024-02-16T11:47:37;97881.38;;;21.55;50.56
8894;BME280;4483;48.622;9.230;2024-02-16T11:50:05;97891.81;;;21.45;51.47
8894;BME280;4483;48.622;9.230;2024-02-16T11:52:36;97876.06;;;21.45;51.32
8894;BME280;4483;48.622;9.230;2024-02-16T11:55:03;97884.06;;;21.44;51.33
8894;BME280;4483;48.622;9.230;2024-02-16T11:57:31;97881.38;;;21.55;51.53
8894;BME280;4483;48.622;9.230;2024-02-16T12:00:00;97880.59;;;21.64;50.76
8894;BME280;4483;48.622;9.230;2024-02-16T12:02:29;97878.34;;;21.59;50.63
8894;BME280;4483;48.622;9.230;2024-02-16T12:04:59;97882.59;;;21.71;50.94
8894;BME280;4483;48.622;9.230;2024-02-16T12:07:26;97870.59;;;21.99;50.76
8894;BME280;4483;48.622;9.230;2024-02-16T12:09:57;97876.56;;;22.11;50.18
8894;BME280;4483;48.622;9.230;2024-02-16T12:12:24;97868.22;;;21.96;50.10
8894;BME280;4483;48.622;9.230;2024-02-16T12:14:52;97873.09;;;22.01;50.51
8894;BME280;4483;48.622;9.230;2024-02-16T12:17:20;97879.13;;;21.91;50.34
8894;BME280;4483;48.622;9.230;2024-02-16T12:19:47;97879.84;;;21.73;50.96
8894;BME280;4483;48.622;9.230;2024-02-16T12:22:16;97872.69;;;21.34;51.64
8894;BME280;4483;48.622;9.230;2024-02-16T12:24:44;97881.31;;;21.04;52.14
8894;BME280;4483;48.622;9.230;2024-02-16T12:27:10;97886.72;;;20.69;53.26
8894;BME280;4483;48.622;9.230;2024-02-16T12:29:38;97892.16;;;20.46;54.58
8894;BME280;4483;48.622;9.230;2024-02-16T12:32:05;97896.09;;;20.18;55.18
8894;BME280;4483;48.622;9.230;2024-02-16T12:34:34;97896.31;;;20.04;55.92
8894;BME280;4483;48.622;9.230;2024-02-16T12:37:00;97894.88;;;19.89;56.53
8894;BME280;4483;48.622;9.230;2024-02-16T12:39:27;97895.00;;;19.76;56.42
8894;BME280;4483;48.622;9.230;2024-02-16T12:41:53;97896.16;;;19.61;57.37
8894;BME280;4483;48.622;9.230;2024-02-16T12:44:20;97893.31;;;19.53;57.15
8894;BME280;4483;48.622;9.230;2024-02-16T12:46:47;97898.84;;;19.38;58.00
8894;BME280;4483;48.622;9.230;2024-02-16T12:49:13;97898.06;;;19.25;58.39
8894;BME280;4483;48.622;9.230;2024-02-16T12:51:42;97896.66;;;19.21;58.93
8894;BME280;4483;48.622;9.230;2024-02-16T12:54:09;97898.53;;;19.19;58.94
8894;BME280;4483;48.622;9.230;2024-02-16T12:56:39;97897.31;;;19.12;59.30
8894;BME280;4483;48.622;9.230;2024-02-16T12:59:06;97906.31;;;19.08;59.42
8894;BME280;4483;48.622;9.230;2024-02-16T13:01:33;97896.19;;;19.03;60.01
8894;BME280;4483;48.622;9.230;2024-02-16T13:03:59;97904.03;;;19.03;59.70
8894;BME280;4483;48.622;9.230;2024-02-16T13:06:26;97906.03;;;18.99;60.13
8894;BME280;4483;48.622;9.230;2024-02-16T13:08:54;97895.94;;;18.95;60.42
8894;BME280;4483;48.622;9.230;2024-02-16T13:11:20;97894.28;;;18.94;60.41
8894;BME280;4483;48.622;9.230;2024-02-16T13:13:47;97898.03;;;18.90;60.87
8894;BME280;4483;48.622;9.230;2024-02-16T13:16:14;97897.22;;;18.89;61.20
8894;BME280;4483;48.622;9.230;2024-02-16T13:18:41;97896.28;;;18.90;61.61
8894;BME280;4483;48.622;9.230;2024-02-16T13:21:07;97895.06;;;18.83;62.03
8894;BME280;4483;48.622;9.230;2024-02-16T13:23:34;97893.41;;;18.82;62.08